Saturday, November 18, 2017, 6:14 AM GMT
Back to Local

CYUL, Montreal / Pierre Elliot Trudeau International Airport, Que

Location: , , Canada Lat: 45.467
Local Time: 6:14 AM GMT ( 6:14 GMT) Lon: -73.75
Time Zone: GMT Elev: 101 ft

Show me the last for .
Show Decoded

2017-11-18 06:00 METAR CYUL 180600Z 04003KT 15SM BKN240 M05/M08 A3001 RMK CI5 SLP166 =
2017-11-18 05:00 METAR CYUL 180500Z 24003KT 15SM BKN220 M04/M09 A3003 RMK CI6 SLP172 =
2017-11-18 04:00 METAR CYUL 180400Z 24005KT 15SM BKN250 M05/M09 A3005 RMK CI7 SLP178 =
2017-11-18 03:00 METAR CYUL 180300Z 22004KT 15SM SCT250 M04/M09 A3005 RMK CI4 SLP181 =
2017-11-18 02:00 METAR CYUL 180200Z 24008KT 15SM SKC M04/M10 A3008 RMK SLP191 =
2017-11-18 01:00 METAR CYUL 180100Z 23007KT 15SM SKC M04/M10 A3009 RMK SLP193 =
2017-11-18 00:00 METAR CYUL 180000Z 27005KT 15SM SKC M03/M10 A3009 RMK SLP193 =
2017-11-17 23:00 METAR CYUL 172300Z 27008KT 15SM FEW240 M02/M10 A3011 RMK CI1 SLP199 =
2017-11-17 22:00 METAR CYUL 172200Z 27009G17KT 15SM FEW240 M02/M10 A3008 RMK CI1 SLP189 =
2017-11-17 21:00 METAR CYUL 172100Z 27009G16KT 30SM FEW035 FEW240 M01/M10 A3008 RMK CU1CI1 CU TR
                 SLP189 =
2017-11-17 20:00 METAR CYUL 172000Z 29015G22KT 30SM FEW035 FEW240 M01/M10 A3007 RMK CU1CI1 CU TR
                 SLP185 =
2017-11-17 19:00 METAR CYUL 171900Z 28016G22KT 15SM FEW035 FEW240 M01/M10 A3007 RMK CU1CI1 SLP185
                 =
2017-11-17 18:00 METAR CYUL 171800Z 27016G22KT 15SM FEW030 M01/M09 A3006 RMK CU1 SLP183 =
2017-11-17 17:00 METAR CYUL 171700Z 29016G24KT 15SM SCT030 M01/M09 A3006 RMK CU3 SLP183 =
2017-11-17 16:00 METAR CYUL 171600Z 28017G23KT 15SM SCT028 M01/M09 A3008 RMK SC4 SLP190 =
2017-11-17 15:00 METAR CYUL 171500Z 29015G20KT 15SM BKN028 M02/M08 A3009 RMK SC7 SLP192 =
2017-11-17 14:00 METAR CYUL 171400Z 29017G22KT 15SM OVC022 M02/M07 A3008 RMK SC8 SLP190 =
2017-11-17 13:00 METAR CYUL 171300Z 28015G23KT 15SM FEW020 OVC029 M02/M07 A3007 RMK SC1SC8 SC TR
                 SLP184 =
2017-11-17 12:00 METAR CYUL 171200Z 27017G22KT 15SM BKN030 BKN250 M02/M06 A3003 RMK SC6CI1 SLP173
                 =
2017-11-17 11:00 METAR CYUL 171100Z 28018G24KT 15SM OVC028 M02/M06 A2999 RMK SC8 SLP159 =
2017-11-17 10:00 METAR CYUL 171000Z 28014G21KT 14SM OVC030 M01/M05 A2996 RMK SC8 SLP147 =
2017-11-17 09:44 METAR CYUL 170944Z 27012G20KT 15SM OVC030 M01/M05 A2995 RMK SC8 SLP144
2017-11-17 09:00 METAR CYUL 170900Z 29016G22KT 15SM -SN OVC025 M01/M05 A2992 RMK SC8 SLP136 =
2017-11-17 08:00 METAR CYUL 170800Z 28016G22KT 15SM -SN BKN030 OVC060 M00/M04 A2989 RMK SC6SC2
                 -SN INTMT SLP123 =
2017-11-17 07:42 METAR CYUL 170742Z 29017G23KT 15SM -SN BKN027 OVC058 00/M04 A2988 RMK SC6SC2 -SN
                 INTMT SLP120 =
2017-11-17 07:24 METAR CYUL 170724Z 28016G22KT 15SM FEW026 OVC058 00/M04 A2986 RMK SC1SC7 SLP116
                 =
2017-11-17 07:00 METAR CYUL 170700Z 28013G25KT 15SM -SN FEW030 OVC050 00/M04 A2985 RMK SC1SC8 SC
                 TR SLP110 =

Support USWX by starting your Amazon purchase here.